Paradise Valley, Arizona
Current Conditions -  °F | °C
As of 11:53 AM on Wednesday 26 Nov 2014 (Local Time) from KSDL Reporting Station
Clear Clear  
Wind Chill: 64°   Ceiling: Unl
Heat Index: 64°   Visibility: 10mi
Dew Point: 12°   Wind: 0mph
Humidity: 13%   Direction: NA
Pressure: 30.29"   Gusts: NA
Location:  33.53°N, 111.94°W
Report Text: KSDL 261853Z 00000KT 10SM CLR 18/M11 A3029 RMK AO2 SLP247 T01781111
Loading
Personal Weather Stations






























Interactive Weather Map New forecast layout! Learn more

10-Day Weather Forecast

Advertisements
Track Severe Weather on mobile